sensor_id;sensor_type;location;lat;lon;timestamp;P1;durP1;ratioP1;P2;durP2;ratioP2
44764;SDS011;30484;52.382;5.260;2023-05-01T00:00:40;9.10;;;3.92;;
44764;SDS011;30484;52.382;5.260;2023-05-01T00:03:09;15.75;;;4.28;;
44764;SDS011;30484;52.382;5.260;2023-05-01T00:05:40;8.80;;;3.58;;
44764;SDS011;30484;52.382;5.260;2023-05-01T00:08:08;12.60;;;4.00;;
44764;SDS011;30484;52.382;5.260;2023-05-01T00:10:37;8.05;;;3.75;;
44764;SDS011;30484;52.382;5.260;2023-05-01T00:13:05;9.57;;;4.22;;
44764;SDS011;30484;52.382;5.260;2023-05-01T00:15:36;6.85;;;3.63;;
44764;SDS011;30484;52.382;5.260;2023-05-01T00:18:09;9.40;;;4.20;;
44764;SDS011;30484;52.382;5.260;2023-05-01T00:20:37;8.95;;;3.80;;
44764;SDS011;30484;52.382;5.260;2023-05-01T00:23:05;10.13;;;4.20;;
44764;SDS011;30484;52.382;5.260;2023-05-01T00:25:34;10.45;;;4.53;;
44764;SDS011;30484;52.382;5.260;2023-05-01T00:28:02;10.45;;;4.53;;
44764;SDS011;30484;52.382;5.260;2023-05-01T00:30:33;12.18;;;4.05;;
44764;SDS011;30484;52.382;5.260;2023-05-01T00:33:03;13.60;;;4.63;;
44764;SDS011;30484;52.382;5.260;2023-05-01T00:35:32;13.00;;;4.63;;
44764;SDS011;30484;52.382;5.260;2023-05-01T00:38:01;14.98;;;4.90;;
44764;SDS011;30484;52.382;5.260;2023-05-01T00:40:29;9.18;;;3.85;;
44764;SDS011;30484;52.382;5.260;2023-05-01T00:42:57;13.43;;;4.32;;
44764;SDS011;30484;52.382;5.260;2023-05-01T00:45:26;12.93;;;4.68;;
44764;SDS011;30484;52.382;5.260;2023-05-01T00:47:54;8.07;;;4.15;;
44764;SDS011;30484;52.382;5.260;2023-05-01T00:50:24;7.38;;;3.85;;
44764;SDS011;30484;52.382;5.260;2023-05-01T00:52:53;9.93;;;4.03;;
44764;SDS011;30484;52.382;5.260;2023-05-01T00:55:21;9.25;;;4.35;;
44764;SDS011;30484;52.382;5.260;2023-05-01T00:57:50;7.97;;;4.32;;
44764;SDS011;30484;52.382;5.260;2023-05-01T01:00:19;13.40;;;4.20;;
44764;SDS011;30484;52.382;5.260;2023-05-01T01:02:50;6.60;;;4.05;;
44764;SDS011;30484;52.382;5.260;2023-05-01T01:05:25;12.18;;;4.43;;
44764;SDS011;30484;52.382;5.260;2023-05-01T01:07:58;10.52;;;4.47;;
44764;SDS011;30484;52.382;5.260;2023-05-01T01:10:39;10.95;;;4.40;;
44764;SDS011;30484;52.382;5.260;2023-05-01T01:13:21;8.63;;;4.30;;
44764;SDS011;30484;52.382;5.260;2023-05-01T01:15:58;8.82;;;4.78;;
44764;SDS011;30484;52.382;5.260;2023-05-01T01:18:36;14.23;;;5.03;;
44764;SDS011;30484;52.382;5.260;2023-05-01T01:21:15;12.40;;;4.88;;
44764;SDS011;30484;52.382;5.260;2023-05-01T01:24:04;11.95;;;4.07;;
44764;SDS011;30484;52.382;5.260;2023-05-01T01:30:10;15.45;;;4.30;;
44764;SDS011;30484;52.382;5.260;2023-05-01T01:33:08;7.65;;;4.38;;
44764;SDS011;30484;52.382;5.260;2023-05-01T01:36:00;10.85;;;4.20;;
44764;SDS011;30484;52.382;5.260;2023-05-01T01:38:35;10.02;;;4.72;;
44764;SDS011;30484;52.382;5.260;2023-05-01T01:41:11;20.88;;;5.25;;
44764;SDS011;30484;52.382;5.260;2023-05-01T01:43:54;11.98;;;4.97;;
44764;SDS011;30484;52.382;5.260;2023-05-01T01:46:29;9.32;;;4.28;;
44764;SDS011;30484;52.382;5.260;2023-05-01T01:49:06;7.90;;;4.35;;
44764;SDS011;30484;52.382;5.260;2023-05-01T01:51:45;12.18;;;5.03;;
44764;SDS011;30484;52.382;5.260;2023-05-01T01:54:16;11.73;;;4.65;;
44764;SDS011;30484;52.382;5.260;2023-05-01T01:56:52;12.32;;;4.65;;
44764;SDS011;30484;52.382;5.260;2023-05-01T01:59:23;11.18;;;5.13;;
44764;SDS011;30484;52.382;5.260;2023-05-01T02:01:52;11.23;;;4.50;;
44764;SDS011;30484;52.382;5.260;2023-05-01T02:04:23;9.27;;;4.72;;
44764;SDS011;30484;52.382;5.260;2023-05-01T02:06:56;8.27;;;4.85;;
44764;SDS011;30484;52.382;5.260;2023-05-01T02:09:27;12.43;;;4.97;;
44764;SDS011;30484;52.382;5.260;2023-05-01T02:11:57;9.07;;;4.93;;
44764;SDS011;30484;52.382;5.260;2023-05-01T02:14:27;13.05;;;5.22;;
44764;SDS011;30484;52.382;5.260;2023-05-01T02:16:57;11.15;;;5.40;;
44764;SDS011;30484;52.382;5.260;2023-05-01T02:19:26;11.55;;;5.03;;
44764;SDS011;30484;52.382;5.260;2023-05-01T02:21:56;9.15;;;4.82;;
44764;SDS011;30484;52.382;5.260;2023-05-01T02:24:26;11.02;;;5.47;;
44764;SDS011;30484;52.382;5.260;2023-05-01T02:26:59;10.20;;;5.57;;
44764;SDS011;30484;52.382;5.260;2023-05-01T02:29:34;8.77;;;4.80;;
44764;SDS011;30484;52.382;5.260;2023-05-01T02:32:03;9.15;;;4.75;;
44764;SDS011;30484;52.382;5.260;2023-05-01T02:34:33;11.32;;;5.15;;
44764;SDS011;30484;52.382;5.260;2023-05-01T02:37:03;12.18;;;5.13;;
44764;SDS011;30484;52.382;5.260;2023-05-01T02:39:34;12.40;;;5.60;;
44764;SDS011;30484;52.382;5.260;2023-05-01T02:42:03;12.75;;;5.05;;
44764;SDS011;30484;52.382;5.260;2023-05-01T02:44:36;14.57;;;5.47;;
44764;SDS011;30484;52.382;5.260;2023-05-01T02:47:08;13.10;;;5.40;;
44764;SDS011;30484;52.382;5.260;2023-05-01T02:49:42;15.43;;;5.70;;
44764;SDS011;30484;52.382;5.260;2023-05-01T02:52:14;8.77;;;5.47;;
44764;SDS011;30484;52.382;5.260;2023-05-01T02:54:45;10.57;;;5.38;;
44764;SDS011;30484;52.382;5.260;2023-05-01T02:57:15;10.20;;;5.32;;
44764;SDS011;30484;52.382;5.260;2023-05-01T02:59:45;11.43;;;5.43;;
44764;SDS011;30484;52.382;5.260;2023-05-01T03:02:14;13.38;;;5.60;;
44764;SDS011;30484;52.382;5.260;2023-05-01T03:04:42;12.98;;;5.65;;
44764;SDS011;30484;52.382;5.260;2023-05-01T03:07:11;10.68;;;5.78;;
44764;SDS011;30484;52.382;5.260;2023-05-01T03:09:41;10.93;;;5.57;;
44764;SDS011;30484;52.382;5.260;2023-05-01T03:12:09;11.55;;;5.70;;
44764;SDS011;30484;52.382;5.260;2023-05-01T03:14:37;13.48;;;6.30;;
44764;SDS011;30484;52.382;5.260;2023-05-01T03:17:06;14.65;;;6.55;;
44764;SDS011;30484;52.382;5.260;2023-05-01T03:19:34;15.30;;;5.55;;
44764;SDS011;30484;52.382;5.260;2023-05-01T03:22:02;11.13;;;5.43;;
44764;SDS011;30484;52.382;5.260;2023-05-01T03:24:31;14.07;;;5.68;;
44764;SDS011;30484;52.382;5.260;2023-05-01T03:27:01;13.23;;;5.88;;
44764;SDS011;30484;52.382;5.260;2023-05-01T03:29:30;12.70;;;6.05;;
44764;SDS011;30484;52.382;5.260;2023-05-01T03:31:59;14.70;;;6.43;;
44764;SDS011;30484;52.382;5.260;2023-05-01T03:34:28;13.32;;;5.95;;
44764;SDS011;30484;52.382;5.260;2023-05-01T03:36:56;14.68;;;6.20;;
44764;SDS011;30484;52.382;5.260;2023-05-01T03:39:25;10.45;;;5.80;;
44764;SDS011;30484;52.382;5.260;2023-05-01T03:41:53;11.02;;;5.85;;
44764;SDS011;30484;52.382;5.260;2023-05-01T03:44:24;12.57;;;6.10;;
44764;SDS011;30484;52.382;5.260;2023-05-01T03:46:53;17.17;;;6.13;;
44764;SDS011;30484;52.382;5.260;2023-05-01T03:49:22;12.90;;;5.88;;
44764;SDS011;30484;52.382;5.260;2023-05-01T03:51:50;15.70;;;5.85;;
44764;SDS011;30484;52.382;5.260;2023-05-01T03:54:19;15.25;;;5.65;;
44764;SDS011;30484;52.382;5.260;2023-05-01T03:56:48;13.88;;;6.20;;
44764;SDS011;30484;52.382;5.260;2023-05-01T03:59:16;11.50;;;5.95;;
44764;SDS011;30484;52.382;5.260;2023-05-01T04:01:46;14.90;;;6.22;;
44764;SDS011;30484;52.382;5.260;2023-05-01T04:04:16;17.98;;;5.75;;
44764;SDS011;30484;52.382;5.260;2023-05-01T04:06:51;14.60;;;5.88;;
44764;SDS011;30484;52.382;5.260;2023-05-01T04:09:19;16.65;;;5.93;;
44764;SDS011;30484;52.382;5.260;2023-05-01T04:11:48;13.15;;;5.88;;
44764;SDS011;30484;52.382;5.260;2023-05-01T04:14:16;18.33;;;5.95;;
44764;SDS011;30484;52.382;5.260;2023-05-01T04:16:47;16.33;;;6.70;;
44764;SDS011;30484;52.382;5.260;2023-05-01T04:19:16;11.45;;;6.13;;
44764;SDS011;30484;52.382;5.260;2023-05-01T04:21:44;14.00;;;6.05;;
44764;SDS011;30484;52.382;5.260;2023-05-01T04:24:13;15.65;;;6.32;;
44764;SDS011;30484;52.382;5.260;2023-05-01T04:26:41;12.95;;;6.45;;
44764;SDS011;30484;52.382;5.260;2023-05-01T04:29:10;18.70;;;7.28;;
44764;SDS011;30484;52.382;5.260;2023-05-01T04:31:38;17.60;;;6.70;;
44764;SDS011;30484;52.382;5.260;2023-05-01T04:34:10;12.77;;;6.25;;
44764;SDS011;30484;52.382;5.260;2023-05-01T04:36:38;14.70;;;6.15;;
44764;SDS011;30484;52.382;5.260;2023-05-01T04:39:06;13.80;;;7.32;;
44764;SDS011;30484;52.382;5.260;2023-05-01T04:41:36;15.07;;;6.38;;
44764;SDS011;30484;52.382;5.260;2023-05-01T04:44:04;21.33;;;7.10;;
44764;SDS011;30484;52.382;5.260;2023-05-01T04:46:33;14.48;;;6.60;;
44764;SDS011;30484;52.382;5.260;2023-05-01T04:49:01;14.55;;;6.47;;
44764;SDS011;30484;52.382;5.260;2023-05-01T04:51:31;12.35;;;6.10;;
44764;SDS011;30484;52.382;5.260;2023-05-01T04:54:00;12.23;;;6.45;;
44764;SDS011;30484;52.382;5.260;2023-05-01T04:56:30;16.10;;;6.35;;
44764;SDS011;30484;52.382;5.260;2023-05-01T04:58:58;14.27;;;6.55;;
44764;SDS011;30484;52.382;5.260;2023-05-01T05:01:27;15.35;;;7.80;;
44764;SDS011;30484;52.382;5.260;2023-05-01T05:03:56;13.93;;;6.57;;
44764;SDS011;30484;52.382;5.260;2023-05-01T05:06:25;14.85;;;6.47;;
44764;SDS011;30484;52.382;5.260;2023-05-01T05:08:55;16.95;;;7.10;;
44764;SDS011;30484;52.382;5.260;2023-05-01T05:11:24;19.35;;;7.25;;
44764;SDS011;30484;52.382;5.260;2023-05-01T05:13:53;15.70;;;6.75;;
44764;SDS011;30484;52.382;5.260;2023-05-01T05:16:24;12.63;;;7.00;;
44764;SDS011;30484;52.382;5.260;2023-05-01T05:18:54;22.10;;;7.75;;
44764;SDS011;30484;52.382;5.260;2023-05-01T05:21:23;15.07;;;6.35;;
44764;SDS011;30484;52.382;5.260;2023-05-01T05:23:55;15.57;;;6.90;;
44764;SDS011;30484;52.382;5.260;2023-05-01T05:26:24;13.00;;;6.95;;
44764;SDS011;30484;52.382;5.260;2023-05-01T05:28:53;15.55;;;7.07;;
44764;SDS011;30484;52.382;5.260;2023-05-01T05:31:21;23.00;;;7.15;;
44764;SDS011;30484;52.382;5.260;2023-05-01T05:33:50;14.90;;;6.90;;
44764;SDS011;30484;52.382;5.260;2023-05-01T05:36:22;15.32;;;6.70;;
44764;SDS011;30484;52.382;5.260;2023-05-01T05:38:52;14.88;;;6.18;;
44764;SDS011;30484;52.382;5.260;2023-05-01T05:41:23;14.40;;;6.15;;
44764;SDS011;30484;52.382;5.260;2023-05-01T05:43:52;11.57;;;6.15;;
44764;SDS011;30484;52.382;5.260;2023-05-01T05:46:21;13.95;;;6.28;;
44764;SDS011;30484;52.382;5.260;2023-05-01T05:48:50;20.38;;;6.72;;
44764;SDS011;30484;52.382;5.260;2023-05-01T05:51:18;11.85;;;6.65;;
44764;SDS011;30484;52.382;5.260;2023-05-01T05:53:46;14.60;;;6.90;;
44764;SDS011;30484;52.382;5.260;2023-05-01T05:56:18;17.08;;;6.70;;
44764;SDS011;30484;52.382;5.260;2023-05-01T05:58:48;22.25;;;6.22;;
44764;SDS011;30484;52.382;5.260;2023-05-01T06:01:17;20.55;;;6.85;;
44764;SDS011;30484;52.382;5.260;2023-05-01T06:03:45;19.15;;;6.03;;
44764;SDS011;30484;52.382;5.260;2023-05-01T06:06:13;13.25;;;5.63;;
44764;SDS011;30484;52.382;5.260;2023-05-01T06:08:42;14.85;;;6.20;;
44764;SDS011;30484;52.382;5.260;2023-05-01T06:11:11;15.30;;;6.25;;
44764;SDS011;30484;52.382;5.260;2023-05-01T06:13:40;14.00;;;5.68;;
44764;SDS011;30484;52.382;5.260;2023-05-01T06:16:10;15.15;;;5.75;;
44764;SDS011;30484;52.382;5.260;2023-05-01T06:18:38;17.60;;;5.70;;
44764;SDS011;30484;52.382;5.260;2023-05-01T06:21:10;12.35;;;5.93;;
44764;SDS011;30484;52.382;5.260;2023-05-01T06:23:39;16.02;;;6.00;;
44764;SDS011;30484;52.382;5.260;2023-05-01T06:26:07;16.90;;;6.03;;
44764;SDS011;30484;52.382;5.260;2023-05-01T06:28:35;12.35;;;5.55;;
44764;SDS011;30484;52.382;5.260;2023-05-01T06:31:04;16.73;;;5.93;;
44764;SDS011;30484;52.382;5.260;2023-05-01T06:33:34;13.90;;;5.38;;
44764;SDS011;30484;52.382;5.260;2023-05-01T06:36:03;12.73;;;6.15;;
44764;SDS011;30484;52.382;5.260;2023-05-01T06:38:34;14.20;;;5.13;;
44764;SDS011;30484;52.382;5.260;2023-05-01T06:41:07;11.07;;;5.20;;
44764;SDS011;30484;52.382;5.260;2023-05-01T06:43:36;13.63;;;5.22;;
44764;SDS011;30484;52.382;5.260;2023-05-01T06:46:05;19.95;;;5.45;;
44764;SDS011;30484;52.382;5.260;2023-05-01T06:48:35;16.50;;;5.68;;
44764;SDS011;30484;52.382;5.260;2023-05-01T06:51:03;11.77;;;5.50;;
44764;SDS011;30484;52.382;5.260;2023-05-01T06:53:32;11.23;;;5.10;;
44764;SDS011;30484;52.382;5.260;2023-05-01T06:56:02;13.68;;;5.75;;
44764;SDS011;30484;52.382;5.260;2023-05-01T06:58:31;13.00;;;5.45;;
44764;SDS011;30484;52.382;5.260;2023-05-01T07:00:59;10.07;;;5.47;;
44764;SDS011;30484;52.382;5.260;2023-05-01T07:03:28;18.83;;;5.75;;
44764;SDS011;30484;52.382;5.260;2023-05-01T07:05:58;11.20;;;5.28;;
44764;SDS011;30484;52.382;5.260;2023-05-01T07:08:27;16.65;;;6.00;;
44764;SDS011;30484;52.382;5.260;2023-05-01T07:10:56;10.57;;;5.53;;
44764;SDS011;30484;52.382;5.260;2023-05-01T07:13:25;19.90;;;6.18;;
44764;SDS011;30484;52.382;5.260;2023-05-01T07:15:53;10.60;;;5.13;;
44764;SDS011;30484;52.382;5.260;2023-05-01T07:18:21;13.73;;;5.45;;
44764;SDS011;30484;52.382;5.260;2023-05-01T07:20:51;14.95;;;5.80;;
44764;SDS011;30484;52.382;5.260;2023-05-01T07:23:21;15.13;;;5.22;;
44764;SDS011;30484;52.382;5.260;2023-05-01T07:25:51;18.15;;;6.10;;
44764;SDS011;30484;52.382;5.260;2023-05-01T07:28:19;17.90;;;5.80;;
44764;SDS011;30484;52.382;5.260;2023-05-01T07:30:48;27.00;;;5.95;;
44764;SDS011;30484;52.382;5.260;2023-05-01T07:33:16;17.08;;;6.00;;
44764;SDS011;30484;52.382;5.260;2023-05-01T07:35:45;21.70;;;6.40;;
44764;SDS011;30484;52.382;5.260;2023-05-01T07:38:14;15.68;;;5.72;;
44764;SDS011;30484;52.382;5.260;2023-05-01T07:40:44;15.50;;;6.07;;
44764;SDS011;30484;52.382;5.260;2023-05-01T07:43:12;14.68;;;5.50;;
44764;SDS011;30484;52.382;5.260;2023-05-01T07:45:41;20.48;;;6.32;;
44764;SDS011;30484;52.382;5.260;2023-05-01T07:48:20;11.43;;;4.90;;
44764;SDS011;30484;52.382;5.260;2023-05-01T07:50:48;11.80;;;5.10;;
44764;SDS011;30484;52.382;5.260;2023-05-01T07:53:16;13.40;;;5.13;;
44764;SDS011;30484;52.382;5.260;2023-05-01T07:55:45;14.27;;;5.45;;
44764;SDS011;30484;52.382;5.260;2023-05-01T07:58:13;13.00;;;5.78;;
44764;SDS011;30484;52.382;5.260;2023-05-01T08:00:43;17.17;;;5.55;;
44764;SDS011;30484;52.382;5.260;2023-05-01T08:03:11;12.65;;;4.75;;
44764;SDS011;30484;52.382;5.260;2023-05-01T08:05:40;12.65;;;5.30;;
44764;SDS011;30484;52.382;5.260;2023-05-01T08:08:08;12.23;;;5.38;;
44764;SDS011;30484;52.382;5.260;2023-05-01T08:10:38;13.98;;;5.50;;
44764;SDS011;30484;52.382;5.260;2023-05-01T08:13:08;13.68;;;4.80;;
44764;SDS011;30484;52.382;5.260;2023-05-01T08:15:36;11.65;;;4.88;;
44764;SDS011;30484;52.382;5.260;2023-05-01T08:18:07;16.02;;;5.07;;
44764;SDS011;30484;52.382;5.260;2023-05-01T08:20:38;13.35;;;5.38;;
44764;SDS011;30484;52.382;5.260;2023-05-01T08:23:07;12.40;;;5.30;;
44764;SDS011;30484;52.382;5.260;2023-05-01T08:25:35;14.77;;;4.32;;
44764;SDS011;30484;52.382;5.260;2023-05-01T08:28:03;12.10;;;4.93;;
44764;SDS011;30484;52.382;5.260;2023-05-01T08:30:33;11.30;;;4.20;;
44764;SDS011;30484;52.382;5.260;2023-05-01T08:33:02;14.25;;;5.32;;
44764;SDS011;30484;52.382;5.260;2023-05-01T08:35:31;12.95;;;4.93;;
44764;SDS011;30484;52.382;5.260;2023-05-01T08:37:59;11.45;;;4.45;;
44764;SDS011;30484;52.382;5.260;2023-05-01T08:40:30;9.93;;;4.18;;
44764;SDS011;30484;52.382;5.260;2023-05-01T08:45:32;10.43;;;3.95;;
44764;SDS011;30484;52.382;5.260;2023-05-01T08:48:04;12.45;;;4.13;;
44764;SDS011;30484;52.382;5.260;2023-05-01T08:50:33;10.23;;;3.60;;
44764;SDS011;30484;52.382;5.260;2023-05-01T08:53:03;11.93;;;3.72;;
44764;SDS011;30484;52.382;5.260;2023-05-01T08:55:33;9.43;;;3.42;;
44764;SDS011;30484;52.382;5.260;2023-05-01T08:58:03;13.20;;;3.78;;
44764;SDS011;30484;52.382;5.260;2023-05-01T09:00:35;12.68;;;3.70;;
44764;SDS011;30484;52.382;5.260;2023-05-01T09:03:04;8.65;;;3.08;;
44764;SDS011;30484;52.382;5.260;2023-05-01T09:05:36;11.02;;;3.40;;
44764;SDS011;30484;52.382;5.260;2023-05-01T09:08:04;7.15;;;3.40;;
44764;SDS011;30484;52.382;5.260;2023-05-01T09:10:33;10.00;;;3.92;;
44764;SDS011;30484;52.382;5.260;2023-05-01T09:13:11;10.55;;;3.40;;
44764;SDS011;30484;52.382;5.260;2023-05-01T09:15:41;10.52;;;3.10;;
44764;SDS011;30484;52.382;5.260;2023-05-01T09:18:10;11.90;;;3.40;;
44764;SDS011;30484;52.382;5.260;2023-05-01T09:20:39;8.98;;;2.97;;
44764;SDS011;30484;52.382;5.260;2023-05-01T09:23:08;7.80;;;2.90;;
44764;SDS011;30484;52.382;5.260;2023-05-01T09:25:38;7.88;;;2.92;;
44764;SDS011;30484;52.382;5.260;2023-05-01T09:28:06;8.30;;;3.10;;
44764;SDS011;30484;52.382;5.260;2023-05-01T09:30:36;11.50;;;3.28;;
44764;SDS011;30484;52.382;5.260;2023-05-01T09:33:07;8.32;;;3.03;;
44764;SDS011;30484;52.382;5.260;2023-05-01T09:35:47;7.70;;;2.78;;
44764;SDS011;30484;52.382;5.260;2023-05-01T09:38:18;6.10;;;2.60;;
44764;SDS011;30484;52.382;5.260;2023-05-01T09:40:48;6.60;;;2.50;;
44764;SDS011;30484;52.382;5.260;2023-05-01T09:43:25;7.75;;;2.72;;
44764;SDS011;30484;52.382;5.260;2023-05-01T09:45:59;10.93;;;3.13;;
44764;SDS011;30484;52.382;5.260;2023-05-01T09:48:32;11.88;;;2.50;;
44764;SDS011;30484;52.382;5.260;2023-05-01T09:51:07;9.45;;;2.53;;
44764;SDS011;30484;52.382;5.260;2023-05-01T09:53:48;6.97;;;1.92;;
44764;SDS011;30484;52.382;5.260;2023-05-01T09:56:21;5.45;;;1.50;;
44764;SDS011;30484;52.382;5.260;2023-05-01T09:58:50;6.68;;;1.60;;
44764;SDS011;30484;52.382;5.260;2023-05-01T10:01:35;4.63;;;1.63;;
44764;SDS011;30484;52.382;5.260;2023-05-01T10:04:07;4.07;;;1.73;;
44764;SDS011;30484;52.382;5.260;2023-05-01T10:06:36;5.28;;;2.03;;
44764;SDS011;30484;52.382;5.260;2023-05-01T10:09:05;5.07;;;1.80;;
44764;SDS011;30484;52.382;5.260;2023-05-01T10:11:49;8.98;;;2.00;;
44764;SDS011;30484;52.382;5.260;2023-05-01T10:14:21;7.22;;;2.38;;
44764;SDS011;30484;52.382;5.260;2023-05-01T10:16:52;8.75;;;1.95;;
44764;SDS011;30484;52.382;5.260;2023-05-01T10:19:24;8.57;;;2.33;;
44764;SDS011;30484;52.382;5.260;2023-05-01T10:21:52;5.22;;;2.13;;
44764;SDS011;30484;52.382;5.260;2023-05-01T10:24:21;8.00;;;2.10;;
44764;SDS011;30484;52.382;5.260;2023-05-01T10:26:50;4.78;;;1.90;;
44764;SDS011;30484;52.382;5.260;2023-05-01T10:29:20;9.02;;;1.95;;
44764;SDS011;30484;52.382;5.260;2023-05-01T10:31:50;7.30;;;2.17;;
44764;SDS011;30484;52.382;5.260;2023-05-01T10:34:22;5.40;;;1.90;;
44764;SDS011;30484;52.382;5.260;2023-05-01T10:36:56;6.75;;;1.88;;
44764;SDS011;30484;52.382;5.260;2023-05-01T10:39:30;5.13;;;1.83;;
44764;SDS011;30484;52.382;5.260;2023-05-01T10:42:03;7.70;;;2.60;;
44764;SDS011;30484;52.382;5.260;2023-05-01T10:44:37;7.65;;;2.83;;
44764;SDS011;30484;52.382;5.260;2023-05-01T10:50:15;9.38;;;3.20;;
44764;SDS011;30484;52.382;5.260;2023-05-01T10:55:46;8.63;;;4.03;;
44764;SDS011;30484;52.382;5.260;2023-05-01T11:01:27;10.00;;;4.20;;
44764;SDS011;30484;52.382;5.260;2023-05-01T11:04:00;9.52;;;3.70;;
44764;SDS011;30484;52.382;5.260;2023-05-01T11:06:32;9.60;;;3.88;;
44764;SDS011;30484;52.382;5.260;2023-05-01T11:12:04;12.68;;;3.13;;
44764;SDS011;30484;52.382;5.260;2023-05-01T11:23:18;10.50;;;4.45;;
44764;SDS011;30484;52.382;5.260;2023-05-01T11:25:49;8.27;;;4.07;;
44764;SDS011;30484;52.382;5.260;2023-05-01T11:28:29;9.43;;;4.53;;
44764;SDS011;30484;52.382;5.260;2023-05-01T11:30:58;7.93;;;4.38;;
44764;SDS011;30484;52.382;5.260;2023-05-01T11:33:28;8.73;;;4.18;;
44764;SDS011;30484;52.382;5.260;2023-05-01T11:35:58;10.35;;;4.72;;
44764;SDS011;30484;52.382;5.260;2023-05-01T11:38:31;9.50;;;4.70;;
44764;SDS011;30484;52.382;5.260;2023-05-01T11:41:01;11.32;;;4.90;;
44764;SDS011;30484;52.382;5.260;2023-05-01T11:43:31;9.93;;;4.50;;
44764;SDS011;30484;52.382;5.260;2023-05-01T11:46:00;8.80;;;4.30;;
44764;SDS011;30484;52.382;5.260;2023-05-01T11:48:30;8.88;;;4.22;;
44764;SDS011;30484;52.382;5.260;2023-05-01T11:50:58;10.90;;;4.65;;
44764;SDS011;30484;52.382;5.260;2023-05-01T11:53:29;9.68;;;4.10;;
44764;SDS011;30484;52.382;5.260;2023-05-01T11:55:59;6.93;;;3.28;;
44764;SDS011;30484;52.382;5.260;2023-05-01T11:58:38;11.40;;;3.28;;
44764;SDS011;30484;52.382;5.260;2023-05-01T12:01:07;11.48;;;3.70;;
44764;SDS011;30484;52.382;5.260;2023-05-01T12:03:41;12.90;;;4.18;;
44764;SDS011;30484;52.382;5.260;2023-05-01T12:06:11;8.65;;;3.67;;
44764;SDS011;30484;52.382;5.260;2023-05-01T12:08:42;10.50;;;3.58;;
44764;SDS011;30484;52.382;5.260;2023-05-01T12:11:16;10.93;;;4.00;;
44764;SDS011;30484;52.382;5.260;2023-05-01T12:13:46;7.72;;;3.72;;
44764;SDS011;30484;52.382;5.260;2023-05-01T12:16:15;12.20;;;4.13;;
44764;SDS011;30484;52.382;5.260;2023-05-01T12:18:44;10.80;;;4.97;;
44764;SDS011;30484;52.382;5.260;2023-05-01T12:21:14;9.50;;;4.85;;
44764;SDS011;30484;52.382;5.260;2023-05-01T12:23:45;14.15;;;5.05;;
44764;SDS011;30484;52.382;5.260;2023-05-01T12:26:15;11.57;;;5.25;;
44764;SDS011;30484;52.382;5.260;2023-05-01T12:31:32;11.85;;;5.63;;
44764;SDS011;30484;52.382;5.260;2023-05-01T12:34:02;11.13;;;6.20;;
44764;SDS011;30484;52.382;5.260;2023-05-01T12:36:33;12.07;;;6.70;;
44764;SDS011;30484;52.382;5.260;2023-05-01T12:39:05;15.82;;;6.75;;
44764;SDS011;30484;52.382;5.260;2023-05-01T12:41:35;15.13;;;6.72;;
44764;SDS011;30484;52.382;5.260;2023-05-01T12:44:16;14.63;;;7.07;;
44764;SDS011;30484;52.382;5.260;2023-05-01T12:46:51;12.73;;;6.82;;
44764;SDS011;30484;52.382;5.260;2023-05-01T12:49:27;12.07;;;6.88;;
44764;SDS011;30484;52.382;5.260;2023-05-01T12:52:01;12.80;;;6.18;;
44764;SDS011;30484;52.382;5.260;2023-05-01T12:54:35;15.02;;;6.90;;
44764;SDS011;30484;52.382;5.260;2023-05-01T12:57:05;15.32;;;6.80;;
44764;SDS011;30484;52.382;5.260;2023-05-01T12:59:36;23.52;;;7.70;;
44764;SDS011;30484;52.382;5.260;2023-05-01T13:02:06;14.93;;;6.75;;
44764;SDS011;30484;52.382;5.260;2023-05-01T13:04:39;17.55;;;6.63;;
44764;SDS011;30484;52.382;5.260;2023-05-01T13:07:11;19.67;;;7.03;;
44764;SDS011;30484;52.382;5.260;2023-05-01T13:09:51;13.38;;;6.60;;
44764;SDS011;30484;52.382;5.260;2023-05-01T13:12:21;12.93;;;7.25;;
44764;SDS011;30484;52.382;5.260;2023-05-01T13:14:52;13.40;;;5.95;;
44764;SDS011;30484;52.382;5.260;2023-05-01T13:17:21;14.13;;;6.35;;
44764;SDS011;30484;52.382;5.260;2023-05-01T13:19:52;11.32;;;6.18;;
44764;SDS011;30484;52.382;5.260;2023-05-01T13:22:31;12.40;;;7.30;;
44764;SDS011;30484;52.382;5.260;2023-05-01T13:25:12;13.27;;;6.22;;
44764;SDS011;30484;52.382;5.260;2023-05-01T13:27:46;11.43;;;6.00;;
44764;SDS011;30484;52.382;5.260;2023-05-01T13:30:17;12.68;;;6.07;;
44764;SDS011;30484;52.382;5.260;2023-05-01T13:32:49;12.85;;;5.95;;
44764;SDS011;30484;52.382;5.260;2023-05-01T13:35:21;12.02;;;6.65;;
44764;SDS011;30484;52.382;5.260;2023-05-01T13:37:52;12.25;;;6.78;;
44764;SDS011;30484;52.382;5.260;2023-05-01T13:40:23;14.15;;;5.75;;
44764;SDS011;30484;52.382;5.260;2023-05-01T13:42:54;13.18;;;6.10;;
44764;SDS011;30484;52.382;5.260;2023-05-01T13:45:22;11.90;;;6.28;;
44764;SDS011;30484;52.382;5.260;2023-05-01T13:47:52;14.15;;;5.82;;
44764;SDS011;30484;52.382;5.260;2023-05-01T13:50:22;13.10;;;6.57;;
44764;SDS011;30484;52.382;5.260;2023-05-01T13:52:51;12.23;;;5.82;;
44764;SDS011;30484;52.382;5.260;2023-05-01T13:55:19;10.80;;;6.28;;
44764;SDS011;30484;52.382;5.260;2023-05-01T13:57:51;13.18;;;6.63;;
44764;SDS011;30484;52.382;5.260;2023-05-01T14:00:19;18.77;;;6.10;;
44764;SDS011;30484;52.382;5.260;2023-05-01T14:02:48;14.52;;;6.70;;
44764;SDS011;30484;52.382;5.260;2023-05-01T14:05:21;16.00;;;8.95;;
44764;SDS011;30484;52.382;5.260;2023-05-01T14:07:54;12.85;;;7.68;;
44764;SDS011;30484;52.382;5.260;2023-05-01T14:10:26;12.07;;;7.32;;
44764;SDS011;30484;52.382;5.260;2023-05-01T14:12:56;10.27;;;6.88;;
44764;SDS011;30484;52.382;5.260;2023-05-01T14:15:25;14.35;;;7.55;;
44764;SDS011;30484;52.382;5.260;2023-05-01T14:17:55;11.13;;;6.32;;
44764;SDS011;30484;52.382;5.260;2023-05-01T14:20:26;12.80;;;7.18;;
44764;SDS011;30484;52.382;5.260;2023-05-01T14:22:55;11.30;;;6.72;;
44764;SDS011;30484;52.382;5.260;2023-05-01T14:25:26;13.82;;;7.07;;
44764;SDS011;30484;52.382;5.260;2023-05-01T14:27:57;12.00;;;7.22;;
44764;SDS011;30484;52.382;5.260;2023-05-01T14:30:27;9.43;;;6.50;;
44764;SDS011;30484;52.382;5.260;2023-05-01T14:32:59;10.70;;;6.15;;
44764;SDS011;30484;52.382;5.260;2023-05-01T14:35:31;10.90;;;6.35;;
44764;SDS011;30484;52.382;5.260;2023-05-01T14:38:06;9.63;;;6.40;;
44764;SDS011;30484;52.382;5.260;2023-05-01T14:40:40;9.88;;;6.53;;
44764;SDS011;30484;52.382;5.260;2023-05-01T14:43:12;11.95;;;6.13;;
44764;SDS011;30484;52.382;5.260;2023-05-01T14:45:44;10.10;;;6.50;;
44764;SDS011;30484;52.382;5.260;2023-05-01T14:48:21;8.50;;;6.20;;
44764;SDS011;30484;52.382;5.260;2023-05-01T14:50:54;10.43;;;5.90;;
44764;SDS011;30484;52.382;5.260;2023-05-01T14:53:24;10.25;;;5.80;;
44764;SDS011;30484;52.382;5.260;2023-05-01T14:55:55;9.45;;;5.32;;
44764;SDS011;30484;52.382;5.260;2023-05-01T14:58:26;10.80;;;5.43;;
44764;SDS011;30484;52.382;5.260;2023-05-01T15:01:00;8.20;;;5.70;;
44764;SDS011;30484;52.382;5.260;2023-05-01T15:03:32;9.75;;;5.22;;
44764;SDS011;30484;52.382;5.260;2023-05-01T15:06:06;7.90;;;5.00;;
44764;SDS011;30484;52.382;5.260;2023-05-01T15:08:35;8.40;;;4.80;;
44764;SDS011;30484;52.382;5.260;2023-05-01T15:11:08;8.20;;;4.60;;
44764;SDS011;30484;52.382;5.260;2023-05-01T15:13:40;7.78;;;4.10;;
44764;SDS011;30484;52.382;5.260;2023-05-01T15:16:09;7.32;;;4.38;;
44764;SDS011;30484;52.382;5.260;2023-05-01T15:18:43;9.13;;;5.05;;
44764;SDS011;30484;52.382;5.260;2023-05-01T15:21:12;7.50;;;4.63;;
44764;SDS011;30484;52.382;5.260;2023-05-01T15:23:41;8.15;;;4.60;;
44764;SDS011;30484;52.382;5.260;2023-05-01T15:26:12;8.30;;;4.38;;
44764;SDS011;30484;52.382;5.260;2023-05-01T15:28:42;8.30;;;5.00;;